Time;durP1;ratioP1;P1;durP2;ratioP2;P2;SDS_P1;SDS_P2;PMS_P1;PMS_P2;Temp;Humidity;BMP_temperature;BMP_pressure;BME280_temperature;BME280_humidity;BME280_pressure;Samples;Min_cycle;Max_cycle;Signal;HPM_P1;HPM_P2
2022/04/04 00:00:48;;;;;;;9.68;8.13;;;;;;;9.58;62.16;101379.09;5050314;28;20060;-84
2022/04/04 00:03:15;;;;;;;12.98;8.38;;;;;;;9.67;62.76;101398.78;5066074;28;20057;-84
2022/04/04 00:05:43;;;;;;;10.68;7.75;;;;;;;9.56;63.01;101373.91;5042936;28;20107;-85
2022/04/04 00:08:10;;;;;;;10.85;8.43;;;;;;;9.51;62.77;101373.38;5030084;28;20135;-84
2022/04/04 00:10:36;;;;;;;11.50;8.02;;;;;;;9.21;62.46;101318.13;5030143;28;20053;-85
2022/04/04 00:13:03;;;;;;;10.25;8.10;;;;;;;9.64;62.63;101389.25;5031961;28;20564;-84
2022/04/04 00:15:30;;;;;;;8.65;7.85;;;;;;;9.75;62.31;101397.25;5048937;28;20145;-84
2022/04/04 00:17:57;;;;;;;9.48;8.50;;;;;;;9.56;62.38;101373.91;5048939;28;20052;-84
2022/04/04 00:20:24;;;;;;;11.27;8.93;;;;;;;9.71;62.48;101397.59;5049204;28;20056;-83
2022/04/04 00:22:50;;;;;;;12.48;8.93;;;;;;;9.17;62.58;101317.53;5050215;28;20037;-84
2022/04/04 00:25:17;;;;;;;9.75;8.75;;;;;;;9.57;63.08;101383.53;5048894;28;20051;-83
2022/04/04 00:27:45;;;;;;;8.95;8.05;;;;;;;9.64;62.89;101394.56;5050663;28;20164;-83
2022/04/04 00:30:11;;;;;;;9.88;8.80;;;;;;;9.41;63.19;101359.09;5049649;28;20111;-84
2022/04/04 00:32:38;;;;;;;9.50;8.60;;;;;;;9.67;63.03;101394.34;5051166;28;20133;-84
2022/04/04 00:35:05;;;;;;;9.23;8.32;;;;;;;9.38;62.99;101336.31;5049630;28;20057;-84
2022/04/04 00:37:33;;;;;;;9.50;8.43;;;;;;;9.83;61.88;101386.13;5048090;28;20523;-85
2022/04/04 00:40:00;;;;;;;10.38;9.30;;;;;;;9.68;62.66;101384.56;5048300;28;20131;-84
2022/04/04 00:42:27;;;;;;;9.77;8.77;;;;;;;9.61;63.08;101385.03;5048304;28;20059;-85
2022/04/04 00:44:54;;;;;;;9.07;8.13;;;;;;;9.53;62.70;101376.75;5048230;28;20053;-84
2022/04/04 00:47:21;;;;;;;9.52;8.50;;;;;;;9.65;63.13;101392.75;5049809;28;20055;-85
2022/04/04 00:49:48;;;;;;;9.63;8.60;;;;;;;9.68;62.88;101408.44;5048138;28;20056;-84
2022/04/04 00:52:15;;;;;;;9.45;8.32;;;;;;;9.65;63.68;101409.50;5048277;28;20069;-85
2022/04/04 00:54:42;;;;;;;8.77;7.63;;;;;;;9.59;63.50;101400.19;5049454;28;20052;-84
2022/04/04 00:57:09;;;;;;;8.43;7.25;;;;;;;9.33;63.85;101353.50;5047879;28;20041;-84
2022/04/04 00:59:36;;;;;;;8.20;7.35;;;;;;;9.49;64.67;101391.22;5047877;28;20041;-83
2022/04/04 01:02:04;;;;;;;7.75;6.63;;;;;;;9.51;64.68;101389.28;5047320;28;20602;-85
2022/04/04 01:04:31;;;;;;;11.23;7.28;;;;;;;9.50;65.14;101398.19;5051391;28;20045;-85
2022/04/04 01:07:01;;;;;;;7.32;6.63;;;;;;;9.50;65.11;101398.19;5032544;28;20137;-84
2022/04/04 01:09:28;;;;;;;11.55;6.88;;;;;;;9.31;65.28;101360.72;5029068;28;20053;-86
2022/04/04 01:12:07;;;;;;;7.95;6.60;;;;;;;8.37;65.59;101237.53;5029499;28;20201;-85
2022/04/04 01:14:39;;;;;;;7.97;7.18;;;;;;;8.80;65.49;101313.97;5046706;28;20049;-85
2022/04/04 01:17:07;;;;;;;7.15;6.30;;;;;;;7.95;65.83;101181.38;5050081;28;20137;-84
2022/04/04 01:19:35;;;;;;;7.50;6.50;;;;;;;8.72;65.92;101316.31;5050546;28;20073;-86
2022/04/04 01:22:07;;;;;;;7.35;6.65;;;;;;;9.06;65.61;101370.41;5048985;28;20073;-85
2022/04/04 01:24:34;;;;;;;;;;;;;;;9.30;66.55;101412.03;5048238;28;20568;-86
2022/04/04 01:27:01;;;;;;;6.38;5.78;;;;;;;9.40;65.42;101399.81;5047033;28;20346;-85
2022/04/04 01:29:28;;;;;;;6.60;6.00;;;;;;;9.26;65.89;101384.06;5049003;28;20549;-82
2022/04/04 01:32:33;;;;;;;7.10;6.40;;;;;;;9.31;65.48;101400.47;5053225;28;20041;-83
2022/04/04 01:35:21;;;;;;;12.23;6.57;;;;;;;9.08;66.20;101355.25;5053711;28;20053;-85
2022/04/04 01:37:54;;;;;;;9.13;6.40;;;;;;;9.40;65.85;101399.81;5053768;28;20053;-82
2022/04/04 01:40:30;;;;;;;11.30;6.25;;;;;;;8.92;65.99;101350.19;5036004;28;20059;-85
2022/04/04 01:42:57;;;;;;;7.60;6.70;;;;;;;9.04;65.86;101368.81;5048338;28;20075;-85
2022/04/04 01:48:10;;;;;;;9.95;6.18;;;;;;;9.19;65.63;101405.66;5048509;28;20131;-84
2022/04/04 01:50:37;;;;;;;6.13;5.53;;;;;;;9.14;65.68;101393.72;5047569;28;20045;-84
2022/04/04 01:55:50;;;;;;;8.07;5.95;;;;;;;9.14;65.83;101391.91;5050649;28;20578;-84
2022/04/04 01:58:17;;;;;;;6.95;6.18;;;;;;;9.19;65.11;101387.13;5048058;28;20081;-85
2022/04/04 02:00:44;;;;;;;7.90;5.55;;;;;;;9.40;65.14;101407.78;5047883;28;20052;-84
2022/04/04 02:03:11;;;;;;;9.20;6.05;;;;;;;8.83;64.85;101307.63;5044009;28;20153;-85
2022/04/04 02:05:38;;;;;;;9.25;5.55;;;;;;;9.37;64.79;101403.53;5039727;28;20467;-85
2022/04/04 02:08:05;;;;;;;7.93;6.00;;;;;;;9.37;64.92;101408.84;5027672;28;20395;-85
2022/04/04 02:10:32;;;;;;;6.47;5.90;;;;;;;9.27;64.68;101402.50;5023492;28;20053;-85
2022/04/04 02:12:59;;;;;;;7.70;6.40;;;;;;;9.34;64.98;101416.13;5026086;28;20529;-83
2022/04/04 02:15:25;;;;;;;6.38;5.78;;;;;;;9.29;65.27;101408.50;5044297;28;20128;-85
2022/04/04 02:17:52;;;;;;;6.82;6.13;;;;;;;9.30;65.13;101412.88;5045979;28;20131;-83
2022/04/04 02:20:19;;;;;;;6.20;5.63;;;;;;;9.32;65.09;101415.41;5046497;28;20091;-84
2022/04/04 02:22:46;;;;;;;6.65;5.95;;;;;;;9.12;65.21;101375.25;5045939;28;20049;-83
2022/04/04 02:25:13;;;;;;;8.43;5.93;;;;;;;8.60;64.57;101283.59;5047731;28;20457;-84
2022/04/04 02:27:39;;;;;;;7.00;6.30;;;;;;;8.72;64.96;101311.88;5047077;28;20124;-85
2022/04/04 02:30:07;;;;;;;7.68;6.70;;;;;;;9.14;64.92;101369.88;5044773;28;20092;-84
2022/04/04 02:32:33;;;;;;;9.18;6.10;;;;;;;9.03;64.54;101357.38;5045304;28;20132;-83
2022/04/04 02:35:00;;;;;;;7.75;6.40;;;;;;;9.23;64.46;101385.13;5046369;28;20081;-83
2022/04/04 02:37:27;;;;;;;7.15;6.30;;;;;;;9.42;64.87;101411.16;5045846;28;20049;-85
2022/04/04 02:39:54;;;;;;;6.65;5.88;;;;;;;8.99;66.10;101345.31;5045713;28;20497;-84
2022/04/04 02:42:20;;;;;;;9.18;5.80;;;;;;;9.31;66.32;101371.31;5044705;28;20049;-85
2022/04/04 02:44:47;;;;;;;9.90;6.53;;;;;;;8.84;66.01;101298.75;5047256;28;20076;-85
2022/04/04 02:47:14;;;;;;;10.15;6.03;;;;;;;9.38;67.20;101399.06;5046267;28;20052;-85
2022/04/04 02:49:40;;;;;;;8.95;6.68;;;;;;;8.99;68.64;101340.00;5045285;28;20151;-84
2022/04/04 02:52:07;;;;;;;9.75;6.68;;;;;;;9.42;68.26;101413.81;5045491;28;20059;-85
2022/04/04 02:54:34;;;;;;;8.32;6.50;;;;;;;9.05;69.91;101359.91;5045467;28;20462;-85
2022/04/04 02:57:00;;;;;;;8.60;6.30;;;;;;;9.37;70.43;101414.13;5045374;28;20049;-83
2022/04/04 02:59:27;;;;;;;12.57;6.70;;;;;;;9.16;69.95;101390.00;5062020;28;20052;-85
2022/04/04 03:01:53;;;;;;;6.78;6.05;;;;;;;9.37;69.29;101422.09;5046270;28;20049;-86
2022/04/04 03:04:20;;;;;;;7.93;6.97;;;;;;;8.76;70.06;101312.47;5045463;28;20102;-85
2022/04/04 03:06:47;;;;;;;7.47;6.78;;;;;;;9.36;69.88;101416.88;5031316;28;20414;-84
2022/04/04 03:09:14;;;;;;;8.27;7.38;;;;;;;9.23;68.81;101403.66;5025902;28;20092;-83
2022/04/04 03:11:41;;;;;;;7.25;6.32;;;;;;;9.19;70.59;101410.97;5025093;28;20476;-85
2022/04/04 03:14:26;;;;;;;9.20;6.45;;;;;;;9.19;69.44;101416.25;5036498;28;20045;-84
2022/04/04 03:16:52;;;;;;;10.65;6.70;;;;;;;9.18;69.39;101403.13;5044949;28;20132;-84
2022/04/04 03:19:19;;;;;;;7.18;5.90;;;;;;;9.20;70.39;101412.69;5045361;28;20644;-84
2022/04/04 03:21:46;;;;;;;6.82;6.15;;;;;;;8.89;70.91;101357.50;5046930;28;20120;-85
2022/04/04 03:24:13;;;;;;;7.32;6.63;;;;;;;9.02;70.04;101376.88;5044841;28;20045;-83
2022/04/04 03:26:40;;;;;;;13.88;6.60;;;;;;;8.84;70.20;101355.19;5045182;28;20573;-83
2022/04/04 03:29:06;;;;;;;7.85;6.90;;;;;;;8.96;70.96;101380.81;5045496;28;20057;-84
2022/04/04 03:31:33;;;;;;;7.38;6.68;;;;;;;9.11;71.64;101408.00;5044857;28;20048;-85
2022/04/04 03:34:00;;;;;;;7.70;6.88;;;;;;;8.90;71.41;101389.16;5043949;28;20056;-82
2022/04/04 03:36:26;;;;;;;6.97;6.13;;;;;;;8.87;71.43;101389.38;5043616;28;20053;-84
2022/04/04 03:38:53;;;;;;;9.00;6.78;;;;;;;8.92;70.53;101391.72;5044169;28;20076;-83
2022/04/04 03:41:20;;;;;;;7.07;6.38;;;;;;;9.04;70.69;101400.59;5059540;28;20102;-86
2022/04/04 03:43:46;;;;;;;9.35;7.20;;;;;;;8.91;70.94;101390.03;5043273;28;20100;-85
2022/04/04 03:46:13;;;;;;;8.02;7.07;;;;;;;9.04;71.12;101413.84;5045195;28;20075;-84
2022/04/04 03:48:40;;;;;;;8.52;7.63;;;;;;;8.83;71.64;101373.81;5044867;28;20045;-84
2022/04/04 03:51:07;;;;;;;8.10;7.30;;;;;;;7.73;72.13;101205.78;5045567;28;20460;-85
2022/04/04 03:53:33;;;;;;;9.32;8.43;;;;;;;8.43;72.76;101329.75;5046117;28;20068;-87
2022/04/04 03:56:00;;;;;;;10.73;8.63;;;;;;;8.64;72.65;101364.50;5045191;28;20128;-85
2022/04/04 03:58:27;;;;;;;10.23;9.23;;;;;;;7.85;73.15;101236.66;5045469;28;20139;-82
2022/04/04 04:00:54;;;;;;;11.18;10.02;;;;;;;8.41;73.58;101312.28;5046017;28;20115;-84
2022/04/04 04:03:20;;;;;;;13.20;10.07;;;;;;;8.94;73.27;101405.69;5045177;28;20049;-83
2022/04/04 04:05:47;;;;;;;11.85;10.10;;;;;;;8.73;72.88;101368.31;5037213;28;20471;-85
2022/04/04 04:08:14;;;;;;;12.70;10.75;;;;;;;8.97;72.87;101408.13;5026257;28;20049;-84
2022/04/04 04:10:41;;;;;;;11.98;10.80;;;;;;;8.15;73.26;101269.91;5023943;28;20053;-86
2022/04/04 04:13:07;;;;;;;12.13;10.93;;;;;;;8.70;72.79;101356.13;5021609;28;20057;-85
2022/04/04 04:15:35;;;;;;;12.43;11.10;;;;;;;8.63;72.91;101328.38;5032066;28;20053;-85
2022/04/04 04:18:02;;;;;;;11.85;10.25;;;;;;;8.80;73.48;101355.50;5031327;28;20057;-84
2022/04/04 04:20:32;;;;;;;13.20;11.07;;;;;;;9.05;71.80;101403.13;5029917;28;20119;-86
2022/04/04 04:23:03;;;;;;;12.27;11.07;;;;;;;8.14;71.61;101265.59;5008675;28;20062;-85
2022/04/04 04:25:31;;;;;;;12.52;11.32;;;;;;;8.24;72.96;101274.56;5021690;28;20072;-84
2022/04/04 04:28:00;;;;;;;12.13;10.93;;;;;;;8.71;72.57;101351.66;5026356;28;20081;-85
2022/04/04 04:30:30;;;;;;;12.88;11.52;;;;;;;8.91;72.63;101401.47;5036003;28;20053;-86
2022/04/04 04:32:57;;;;;;;14.20;11.82;;;;;;;8.59;73.03;101342.78;5045293;28;20053;-84
2022/04/04 04:35:24;;;;;;;14.48;11.32;;;;;;;8.97;72.56;101411.63;5045951;28;20874;-82
2022/04/04 04:37:51;;;;;;;14.05;12.07;;;;;;;9.03;73.36;101420.97;5038965;28;20057;-83
2022/04/04 04:40:19;;;;;;;15.18;12.23;;;;;;;7.98;73.59;101243.75;5025640;28;20199;-85
2022/04/04 04:42:47;;;;;;;12.95;11.65;;;;;;;8.59;72.75;101342.78;5025762;28;20053;-84
2022/04/04 04:45:14;;;;;;;12.45;11.25;;;;;;;9.11;72.67;101428.38;5011847;28;20727;-86
2022/04/04 04:47:41;;;;;;;14.15;12.07;;;;;;;8.94;73.13;101411.00;4929656;28;20532;-83
2022/04/04 04:50:12;;;;;;;14.35;12.45;;;;;;;8.92;73.29;101402.31;5005801;28;20158;-85
2022/04/04 04:52:41;;;;;;;13.60;12.38;;;;;;;9.10;73.10;101429.31;5024314;28;20046;-84
2022/04/04 04:55:09;;;;;;;14.82;13.43;;;;;;;8.95;73.26;101428.56;5024345;28;20067;-85
2022/04/04 04:57:36;;;;;;;13.52;12.23;;;;;;;8.75;72.81;101380.47;5025900;28;20041;-84
2022/04/04 05:00:05;;;;;;;14.85;12.57;;;;;;;8.96;72.46;101415.22;5024417;28;20052;-88
2022/04/04 05:02:34;;;;;;;13.35;11.95;;;;;;;8.46;72.50;101349.88;5025721;28;20053;-85
2022/04/04 05:05:04;;;;;;;13.65;12.27;;;;;;;8.95;72.08;101428.56;5023721;28;20049;-85
2022/04/04 05:07:31;;;;;;;14.93;13.52;;;;;;;9.08;72.33;101444.44;5025199;28;20049;-84
2022/04/04 05:09:58;;;;;;;15.75;14.15;;;;;;;9.09;71.93;101449.66;5024341;28;20444;-86
2022/04/04 05:12:25;;;;;;;13.88;12.52;;;;;;;8.83;71.21;101398.47;5024034;28;20073;-84
2022/04/04 05:14:51;;;;;;;14.75;13.18;;;;;;;7.51;71.46;101179.94;5024816;28;20115;-84
2022/04/04 05:17:18;;;;;;;16.55;13.68;;;;;;;8.47;71.55;101356.84;5025936;28;20096;-83
2022/04/04 05:19:45;;;;;;;13.90;12.60;;;;;;;8.73;72.10;101403.56;5026719;28;20140;-86
2022/04/04 05:22:14;;;;;;;16.55;14.15;;;;;;;8.64;72.57;101395.41;5028044;28;20525;-85
2022/04/04 05:24:41;;;;;;;13.93;12.45;;;;;;;8.68;72.59;101395.09;5026280;28;20049;-84
2022/04/04 05:27:09;;;;;;;17.25;14.15;;;;;;;8.78;72.11;101416.47;5029962;28;20092;-86
2022/04/04 05:29:35;;;;;;;14.43;12.93;;;;;;;8.94;72.33;101443.63;5030950;28;20087;-85
2022/04/04 05:32:02;;;;;;;14.95;13.50;;;;;;;8.24;71.83;101331.94;5028586;28;20076;-87
2022/04/04 05:34:30;;;;;;;15.40;13.82;;;;;;;8.27;71.45;101345.78;5026817;28;20061;-86
2022/04/04 05:36:59;;;;;;;15.88;14.27;;;;;;;8.44;71.62;101368.50;5026319;28;20337;-86
2022/04/04 05:39:25;;;;;;;16.85;14.68;;;;;;;8.94;71.99;101454.22;5026396;28;20057;-86
2022/04/04 05:41:52;;;;;;;17.95;14.35;;;;;;;7.84;71.83;101266.72;5026393;28;20045;-84
2022/04/04 05:44:19;;;;;;;18.55;15.77;;;;;;;7.90;71.54;101290.06;5027726;28;20404;-85
2022/04/04 05:46:47;;;;;;;18.13;15.43;;;;;;;8.28;72.00;101367.81;5026928;28;20053;-85
2022/04/04 05:49:15;;;;;;;17.10;14.23;;;;;;;9.07;70.59;101470.09;5026312;28;20045;-84
2022/04/04 05:51:41;;;;;;;17.20;13.82;;;;;;;8.90;70.70;101457.16;5026044;28;20128;-86
2022/04/04 05:54:26;;;;;;;15.65;13.68;;;;;;;8.47;70.85;101396.53;5026020;28;20507;-86
2022/04/04 05:56:53;;;;;;;16.13;14.13;;;;;;;8.93;70.96;101472.84;5025649;28;20049;-86
2022/04/04 05:59:22;;;;;;;18.17;14.27;;;;;;;8.90;71.43;101483.66;5041779;28;20166;-85
2022/04/04 06:01:49;;;;;;;15.45;13.90;;;;;;;8.89;72.20;101488.09;5025628;28;20064;-84
2022/04/04 06:04:16;;;;;;;15.68;14.10;;;;;;;8.88;72.60;101485.53;5025865;28;20056;-85
2022/04/04 06:06:43;;;;;;;13.88;12.55;;;;;;;8.77;73.08;101468.59;5025447;28;20073;-83
2022/04/04 06:09:09;;;;;;;13.40;12.10;;;;;;;9.03;72.78;101500.41;5024981;28;20144;-84
2022/04/04 06:11:36;;;;;;;14.43;12.35;;;;;;;8.85;72.45;101475.16;5026902;28;20107;-83
2022/04/04 06:14:03;;;;;;;13.75;11.70;;;;;;;9.08;72.99;101508.91;5024712;28;20393;-82
2022/04/04 06:16:29;;;;;;;12.88;11.65;;;;;;;8.99;72.76;101489.16;5040012;28;20061;-84
2022/04/04 06:18:56;;;;;;;12.10;10.88;;;;;;;8.76;72.64;101456.31;5041115;28;20111;-83
2022/04/04 06:21:22;;;;;;;11.77;10.70;;;;;;;8.89;72.52;101482.81;5025784;28;20137;-85
2022/04/04 06:23:49;;;;;;;12.45;11.25;;;;;;;8.99;72.72;101498.91;5028391;28;20580;-85
2022/04/04 06:26:16;;;;;;;12.88;11.52;;;;;;;8.82;72.80;101462.16;5028347;28;20053;-82
2022/04/04 06:28:43;;;;;;;12.43;11.23;;;;;;;8.99;72.75;101490.97;5027577;28;20364;-85
2022/04/04 06:31:10;;;;;;;14.90;11.65;;;;;;;8.67;72.53;101435.75;5026535;28;20069;-83
2022/04/04 06:33:39;;;;;;;11.27;10.18;;;;;;;8.93;72.83;101467.53;5027555;28;20443;-84
2022/04/04 06:36:06;;;;;;;12.50;11.20;;;;;;;9.19;72.53;101519.59;5026651;28;20053;-85
2022/04/04 06:38:33;;;;;;;11.65;10.60;;;;;;;8.63;71.12;101428.13;5024917;28;20056;-83
2022/04/04 06:41:00;;;;;;;11.40;10.25;;;;;;;8.39;71.28;101385.59;5026259;28;20114;-82
2022/04/04 06:43:26;;;;;;;15.80;10.70;;;;;;;9.12;71.54;101498.91;5025458;28;20077;-83
2022/04/04 06:45:53;;;;;;;11.18;10.18;;;;;;;9.11;70.85;101490.13;5025853;28;20259;-84
2022/04/04 06:48:21;;;;;;;12.23;10.95;;;;;;;8.23;70.61;101352.25;5027016;28;20416;-84
2022/04/04 06:50:48;;;;;;;12.25;10.93;;;;;;;9.35;70.59;101526.50;5025924;28;20689;-84
2022/04/04 06:53:15;;;;;;;13.88;11.55;;;;;;;8.91;70.74;101450.94;5026348;28;20064;-83
2022/04/04 06:55:44;;;;;;;12.73;11.45;;;;;;;7.81;70.40;101277.47;5026298;28;20062;-84
2022/04/04 06:58:11;;;;;;;13.00;11.45;;;;;;;9.36;70.17;101517.59;5026529;28;20462;-83
2022/04/04 07:00:38;;;;;;;12.48;11.23;;;;;;;9.47;69.86;101525.66;5026288;28;20092;-85
2022/04/04 07:03:08;;;;;;;13.95;11.45;;;;;;;9.34;69.52;101499.13;5026066;28;20484;-80
2022/04/04 07:05:35;;;;;;;12.10;10.95;;;;;;;9.06;68.82;101431.34;5026446;28;20054;-82
2022/04/04 07:08:02;;;;;;;15.27;12.15;;;;;;;9.56;69.05;101513.53;5026858;28;20140;-83
2022/04/04 07:10:28;;;;;;;12.80;11.50;;;;;;;9.14;68.54;101439.59;5025032;28;20144;-84
2022/04/04 07:12:55;;;;;;;12.65;10.30;;;;;;;9.49;68.34;101501.66;5025078;28;20141;-83
2022/04/04 07:15:21;;;;;;;10.73;9.32;;;;;;;9.42;68.08;101482.72;5027422;28;20132;-84
2022/04/04 07:17:48;;;;;;;10.40;9.43;;;;;;;9.62;68.19;101498.06;5025890;28;20459;-83
2022/04/04 07:20:15;;;;;;;11.05;8.80;;;;;;;9.60;67.68;101485.88;5027360;28;20049;-84
2022/04/04 07:22:43;;;;;;;9.73;8.70;;;;;;;9.81;67.83;101512.66;5025238;28;20403;-83
2022/04/04 07:25:11;;;;;;;9.88;8.52;;;;;;;9.94;67.43;101523.25;5043004;28;20140;-85
2022/04/04 07:27:43;;;;;;;5.85;5.10;;;;;;;9.88;66.30;101505.97;5026913;28;20515;-83
2022/04/04 07:30:12;;;;;;;12.23;6.70;;;;;;;9.91;66.38;101526.97;5027912;28;20061;-84
2022/04/04 07:32:40;;;;;;;7.47;6.75;;;;;;;9.79;66.55;101506.63;5026382;28;20255;-85
2022/04/04 07:35:10;;;;;;;7.90;6.38;;;;;;;9.68;66.63;101494.13;5042176;28;20053;-84
2022/04/04 07:37:44;;;;;;;6.65;5.90;;;;;;;8.26;66.09;101264.75;5024956;28;20053;-83
2022/04/04 07:40:14;;;;;;;8.32;6.03;;;;;;;9.66;66.80;101511.97;5025208;28;20136;-83
2022/04/04 07:42:43;;;;;;;8.00;5.85;;;;;;;9.40;66.37;101445.72;5025335;28;20526;-84
2022/04/04 07:45:12;;;;;;;10.63;5.25;;;;;;;9.98;65.94;101541.50;5024699;28;20471;-83
2022/04/04 07:47:40;;;;;;;4.63;4.22;;;;;;;9.70;65.62;101476.28;5028388;28;20128;-83
2022/04/04 07:50:09;;;;;;;3.78;3.47;;;;;;;9.38;65.27;101428.22;5029303;28;20049;-84
2022/04/04 07:52:36;;;;;;;8.55;3.97;;;;;;;10.00;65.08;101514.84;5030142;28;20081;-85
2022/04/04 07:55:04;;;;;;;10.95;4.80;;;;;;;9.96;65.10;101506.25;5029735;28;20057;-84
2022/04/04 07:57:30;;;;;;;5.05;3.60;;;;;;;9.48;65.33;101437.22;5033493;28;20509;-83
2022/04/04 07:59:57;;;;;;;5.78;3.28;;;;;;;10.10;64.31;101528.28;5048957;28;20102;-84
2022/04/04 08:02:25;;;;;;;6.40;3.25;;;;;;;9.64;64.70;101452.88;5045909;28;20541;-84
2022/04/04 08:04:52;;;;;;;7.30;3.97;;;;;;;8.88;64.92;101331.97;5029651;28;20133;-84
2022/04/04 08:07:19;;;;;;;4.47;3.72;;;;;;;9.60;65.00;101443.44;5030613;28;20057;-84
2022/04/04 08:09:47;;;;;;;4.15;3.78;;;;;;;9.04;65.55;101345.81;5031375;28;20068;-83
2022/04/04 08:12:13;;;;;;;8.18;3.83;;;;;;;10.01;65.76;101498.81;5030713;28;20046;-83
2022/04/04 08:14:40;;;;;;;2.88;2.53;;;;;;;8.85;64.38;101295.13;5029527;28;20115;-84
2022/04/04 08:17:08;;;;;;;2.95;2.67;;;;;;;9.13;63.94;101358.44;5030375;28;20442;-83
2022/04/04 08:19:35;;;;;;;3.45;2.80;;;;;;;9.94;64.84;101476.34;5029469;28;20055;-84
2022/04/04 08:22:02;;;;;;;4.05;3.05;;;;;;;10.45;64.46;101539.03;5043230;28;20625;-85
2022/04/04 08:24:30;;;;;;;3.53;3.15;;;;;;;10.47;64.19;101532.66;5048919;28;20114;-84
2022/04/04 08:26:56;;;;;;;4.03;3.40;;;;;;;10.68;64.25;101542.66;5049532;28;20052;-85
2022/04/04 08:29:23;;;;;;;8.15;3.30;;;;;;;10.48;63.91;101513.13;5051694;28;20140;-83
2022/04/04 08:31:50;;;;;;;3.28;2.80;;;;;;;10.52;63.66;101519.03;5050622;28;20049;-84
2022/04/04 08:34:17;;;;;;;5.55;3.05;;;;;;;10.80;63.48;101552.34;5051874;28;20045;-84
2022/04/04 08:36:44;;;;;;;4.03;2.78;;;;;;;10.76;63.61;101529.63;5051213;28;20084;-85
2022/04/04 08:39:11;;;;;;;3.92;3.20;;;;;;;10.21;63.69;101419.56;5051652;28;20606;-85
2022/04/04 08:41:38;;;;;;;3.97;3.08;;;;;;;10.33;63.40;101424.00;5051386;28;20335;-85
2022/04/04 08:44:07;;;;;;;3.78;3.05;;;;;;;10.25;61.96;101381.22;5051900;28;20056;-85
2022/04/04 08:46:34;;;;;;;3.33;2.95;;;;;;;11.04;62.10;101520.41;5052697;28;20457;-84
2022/04/04 08:49:06;;;;;;;3.90;3.45;;;;;;;10.29;61.55;101385.34;5050873;28;20080;-85
2022/04/04 08:51:35;;;;;;;3.38;2.92;;;;;;;9.55;62.97;101262.69;5050390;28;20068;-85
2022/04/04 08:54:02;;;;;;;3.95;3.47;;;;;;;11.45;62.34;101550.09;5051594;28;20049;-84
2022/04/04 08:56:29;;;;;;;3.72;3.05;;;;;;;10.89;61.67;101466.63;5032172;28;20117;-84
2022/04/04 08:58:56;;;;;;;3.17;2.92;;;;;;;11.32;62.90;101544.88;5030022;28;20144;-83
2022/04/04 09:01:27;;;;;;;3.13;2.83;;;;;;;10.39;62.37;101406.75;5031772;28;20454;-85
2022/04/04 09:03:59;;;;;;;2.65;2.45;;;;;;;11.14;63.07;101547.16;5031866;28;20045;-84
2022/04/04 09:06:30;;;;;;;3.17;2.88;;;;;;;11.17;62.92;101546.06;5030575;28;20049;-84
2022/04/04 09:08:57;;;;;;;4.32;3.03;;;;;;;9.81;62.95;101324.38;5035884;28;20045;-86
2022/04/04 09:11:24;;;;;;;3.67;3.38;;;;;;;10.76;62.95;101468.56;5041415;28;20057;-85
2022/04/04 09:14:06;;;;;;;4.75;3.80;;;;;;;11.20;63.29;101529.88;5033352;28;20106;-84
2022/04/04 09:16:34;;;;;;;3.72;3.40;;;;;;;10.81;62.75;101455.75;5030308;28;20132;-84
2022/04/04 09:19:02;;;;;;;3.25;2.85;;;;;;;11.39;63.22;101546.09;5030004;28;20057;-84
2022/04/04 09:21:32;;;;;;;6.50;3.30;;;;;;;11.23;62.49;101527.81;5040045;28;20057;-84
2022/04/04 09:24:06;;;;;;;7.13;4.18;;;;;;;11.45;62.72;101539.47;5048803;28;20041;-85
2022/04/04 09:26:38;;;;;;;14.90;6.90;;;;;;;10.63;62.23;101393.41;5049506;28;20045;-85
2022/04/04 09:29:16;;;;;;;16.65;8.27;;;;;;;10.84;61.69;101386.47;5048902;28;20102;-86
2022/04/04 09:32:09;;;;;;;6.68;4.78;;;;;;;10.09;60.39;101266.59;5034481;28;20047;-84
2022/04/04 09:35:01;;;;;;;4.05;3.72;;;;;;;11.33;60.26;101488.09;5028472;28;20053;-85
2022/04/04 09:37:30;;;;;;;6.22;4.78;;;;;;;11.70;61.11;101549.00;5032124;28;20582;-83
2022/04/04 09:40:09;;;;;;;5.18;4.22;;;;;;;11.88;61.87;101541.44;5032786;28;20464;-85
2022/04/04 09:42:56;;;;;;;4.97;3.97;;;;;;;11.21;61.33;101438.53;5029615;28;20060;-83
2022/04/04 09:45:26;;;;;;;5.90;3.50;;;;;;;11.72;60.09;101502.75;5030220;28;20073;-83
2022/04/04 09:47:53;;;;;;;7.40;4.57;;;;;;;11.94;60.00;101535.63;5027188;28;20149;-84
2022/04/04 09:50:37;;;;;;;7.32;4.10;;;;;;;12.03;60.42;101534.06;5027193;28;20096;-85
2022/04/04 09:53:22;;;;;;;7.70;4.53;;;;;;;12.06;60.66;101531.97;5028157;28;20045;-85
2022/04/04 09:55:55;;;;;;;4.97;4.37;;;;;;;10.64;59.89;101280.94;5028095;28;20689;-84
2022/04/04 09:58:27;;;;;;;5.13;4.65;;;;;;;12.00;59.83;101471.28;5025916;28;20053;-86
2022/04/04 10:00:55;;;;;;;5.78;4.40;;;;;;;11.90;58.91;101414.47;5025999;28;20075;-86
2022/04/04 10:03:23;;;;;;;6.13;4.20;;;;;;;12.19;58.61;101450.16;5022695;28;20057;-83
2022/04/04 10:06:05;;;;;;;4.80;4.40;;;;;;;12.78;57.27;101515.41;5023790;28;20152;-84
2022/04/04 10:08:36;;;;;;;7.47;3.92;;;;;;;12.77;58.23;101455.13;5027413;28;20042;-85
2022/04/04 10:11:11;;;;;;;4.05;3.65;;;;;;;13.24;57.91;101500.00;5027838;28;20339;-83
2022/04/04 10:13:37;;;;;;;4.80;4.25;;;;;;;13.67;56.30;101507.00;5026133;28;20687;-84
2022/04/04 10:16:05;;;;;;;5.13;4.60;;;;;;;13.90;56.75;101503.13;5026101;28;20056;-86
2022/04/04 10:18:33;;;;;;;4.88;4.40;;;;;;;13.72;56.31;101454.06;5026698;28;20059;-86
2022/04/04 10:21:00;;;;;;;5.22;4.43;;;;;;;14.01;55.23;101499.50;5025438;28;20053;-87
2022/04/04 10:23:29;;;;;;;4.20;3.78;;;;;;;13.94;53.96;101495.69;5024794;28;20144;-86
2022/04/04 10:26:00;;;;;;;3.63;3.33;;;;;;;13.68;54.07;101463.31;5023896;28;20057;-85
2022/04/04 10:28:35;;;;;;;5.43;3.80;;;;;;;12.78;54.40;101350.22;5024968;28;20136;-85
2022/04/04 10:31:17;;;;;;;6.50;4.53;;;;;;;13.75;55.23;101483.13;5024506;28;20205;-85
2022/04/04 10:33:45;;;;;;;3.75;3.45;;;;;;;13.48;54.59;101405.53;5024800;28;20064;-85
2022/04/04 10:36:22;;;;;;;4.55;4.15;;;;;;;14.24;54.61;101470.72;5024707;28;20045;-85
2022/04/04 10:38:51;;;;;;;6.00;4.47;;;;;;;14.38;53.69;101441.94;5025289;28;20114;-86
2022/04/04 10:41:21;;;;;;;4.25;3.85;;;;;;;14.06;53.13;101341.59;5024860;28;20432;-86
2022/04/04 10:43:50;;;;;;;4.10;3.63;;;;;;;15.06;51.62;101490.84;5025131;28;20499;-85
2022/04/04 10:46:19;;;;;;;4.32;3.35;;;;;;;14.23;50.06;101313.31;5026062;28;20089;-85
2022/04/04 10:48:56;;;;;;;3.90;3.22;;;;;;;14.40;49.55;101343.81;5024729;28;20096;-85
2022/04/04 10:51:38;;;;;;;4.63;3.63;;;;;;;14.02;49.80;101274.25;5023550;28;20487;-85
2022/04/04 10:54:10;;;;;;;4.20;3.38;;;;;;;15.50;48.05;101474.22;5024150;28;20356;-86
2022/04/04 10:56:39;;;;;;;3.83;3.50;;;;;;;15.60;46.63;101469.66;5014626;28;20285;-84
2022/04/04 10:59:15;;;;;;;3.38;3.17;;;;;;;15.76;47.20;101467.22;5005457;28;20061;-84
2022/04/04 11:01:45;;;;;;;3.92;2.95;;;;;;;15.90;47.58;101430.22;5004775;28;20062;-87
2022/04/04 11:04:27;;;;;;;3.33;3.03;;;;;;;15.73;46.36;101373.00;5005433;28;20077;-86
2022/04/04 11:10:06;;;;;;;4.65;4.22;;;;;;;16.02;47.32;101387.00;5026181;28;20060;-85
2022/04/04 11:13:05;;;;;;;4.30;3.90;;;;;;;16.51;47.66;101461.63;5026327;28;20045;-85
2022/04/04 11:15:48;;;;;;;3.75;3.45;;;;;;;16.20;48.40;101469.22;5024641;28;20521;-86
2022/04/04 11:18:15;;;;;;;5.03;4.53;;;;;;;15.95;48.54;101455.56;5024364;28;20518;-85
2022/04/04 11:21:04;;;;;;;5.95;3.92;;;;;;;15.63;48.35;101447.09;5024093;28;20262;-85
2022/04/04 11:23:37;;;;;;;3.80;3.35;;;;;;;15.10;48.79;101405.81;5022273;28;20136;-85
2022/04/04 11:26:04;;;;;;;3.60;3.30;;;;;;;15.30;48.87;101454.72;5024805;28;20080;-86
2022/04/04 11:28:35;;;;;;;4.22;3.83;;;;;;;15.22;48.41;101441.22;5024946;28;20046;-85
2022/04/04 11:31:08;;;;;;;3.13;2.92;;;;;;;15.41;48.25;101445.66;5024096;28;20144;-86
2022/04/04 11:33:45;;;;;;;4.05;3.75;;;;;;;15.56;47.81;101439.69;5008840;28;20530;-84
2022/04/04 11:36:32;;;;;;;4.28;3.92;;;;;;;14.81;47.26;101344.44;5024388;28;20178;-85
2022/04/04 11:39:03;;;;;;;4.18;3.72;;;;;;;15.26;47.55;101431.94;5024500;28;20055;-85
2022/04/04 11:41:36;;;;;;;4.03;3.72;;;;;;;15.01;48.73;101414.72;5025658;28;20051;-86
2022/04/04 11:44:04;;;;;;;10.27;3.95;;;;;;;14.79;47.80;101394.53;5024891;28;20062;-84